sensor_id;sensor_type;location;lat;lon;timestamp;temperature;humidity
33699;DHT22;20032;52.436;13.312;2023-06-26T00:01:58;19.80;99.90
33699;DHT22;20032;52.436;13.312;2023-06-26T00:04:23;19.90;99.90
33699;DHT22;20032;52.436;13.312;2023-06-26T00:06:49;20.00;99.90
33699;DHT22;20032;52.436;13.312;2023-06-26T00:09:14;20.00;99.90
33699;DHT22;20032;52.436;13.312;2023-06-26T00:11:40;19.90;99.90
33699;DHT22;20032;52.436;13.312;2023-06-26T00:14:05;19.80;99.90
33699;DHT22;20032;52.436;13.312;2023-06-26T00:16:31;19.70;99.90
33699;DHT22;20032;52.436;13.312;2023-06-26T00:18:57;19.60;99.90
33699;DHT22;20032;52.436;13.312;2023-06-26T00:21:24;19.60;99.90
33699;DHT22;20032;52.436;13.312;2023-06-26T00:23:50;19.70;99.90
33699;DHT22;20032;52.436;13.312;2023-06-26T00:26:16;19.70;99.90
33699;DHT22;20032;52.436;13.312;2023-06-26T00:28:42;19.70;99.90
33699;DHT22;20032;52.436;13.312;2023-06-26T00:31:07;19.60;99.90
33699;DHT22;20032;52.436;13.312;2023-06-26T00:33:33;19.60;99.90
33699;DHT22;20032;52.436;13.312;2023-06-26T00:35:59;19.70;99.90
33699;DHT22;20032;52.436;13.312;2023-06-26T00:38:24;19.70;99.90
33699;DHT22;20032;52.436;13.312;2023-06-26T00:40:50;19.70;99.90
33699;DHT22;20032;52.436;13.312;2023-06-26T00:43:15;19.70;99.90
33699;DHT22;20032;52.436;13.312;2023-06-26T00:45:41;19.60;99.90
33699;DHT22;20032;52.436;13.312;2023-06-26T00:48:09;19.60;99.90
33699;DHT22;20032;52.436;13.312;2023-06-26T00:50:37;19.60;99.90
33699;DHT22;20032;52.436;13.312;2023-06-26T00:53:03;19.70;99.90
33699;DHT22;20032;52.436;13.312;2023-06-26T00:55:29;19.60;99.90
33699;DHT22;20032;52.436;13.312;2023-06-26T00:57:56;19.70;99.90
33699;DHT22;20032;52.436;13.312;2023-06-26T01:00:22;19.70;99.90
33699;DHT22;20032;52.436;13.312;2023-06-26T01:02:49;19.70;99.90
33699;DHT22;20032;52.436;13.312;2023-06-26T01:05:15;19.60;99.90
33699;DHT22;20032;52.436;13.312;2023-06-26T01:07:46;19.60;99.90
33699;DHT22;20032;52.436;13.312;2023-06-26T01:10:12;19.50;99.90
33699;DHT22;20032;52.436;13.312;2023-06-26T01:12:37;19.50;99.90
33699;DHT22;20032;52.436;13.312;2023-06-26T01:15:04;19.50;99.90
33699;DHT22;20032;52.436;13.312;2023-06-26T01:17:30;19.50;99.90
33699;DHT22;20032;52.436;13.312;2023-06-26T01:19:58;19.40;99.90
33699;DHT22;20032;52.436;13.312;2023-06-26T01:22:48;19.30;99.90
33699;DHT22;20032;52.436;13.312;2023-06-26T01:25:56;19.40;99.90
33699;DHT22;20032;52.436;13.312;2023-06-26T01:28:24;19.20;99.90
33699;DHT22;20032;52.436;13.312;2023-06-26T01:30:51;19.10;99.90
33699;DHT22;20032;52.436;13.312;2023-06-26T01:33:16;19.20;99.90
33699;DHT22;20032;52.436;13.312;2023-06-26T01:35:42;19.20;99.90
33699;DHT22;20032;52.436;13.312;2023-06-26T01:38:15;19.20;99.90
33699;DHT22;20032;52.436;13.312;2023-06-26T01:40:41;19.30;99.90
33699;DHT22;20032;52.436;13.312;2023-06-26T01:43:10;19.30;99.90
33699;DHT22;20032;52.436;13.312;2023-06-26T01:45:40;19.30;99.90
33699;DHT22;20032;52.436;13.312;2023-06-26T01:48:07;19.30;99.90
33699;DHT22;20032;52.436;13.312;2023-06-26T01:50:36;19.30;99.90
33699;DHT22;20032;52.436;13.312;2023-06-26T01:53:11;19.20;99.90
33699;DHT22;20032;52.436;13.312;2023-06-26T01:56:13;19.20;99.90
33699;DHT22;20032;52.436;13.312;2023-06-26T01:58:27;19.20;99.90
33699;DHT22;20032;52.436;13.312;2023-06-26T02:00:59;19.30;99.90
33699;DHT22;20032;52.436;13.312;2023-06-26T02:03:25;19.10;99.90
33699;DHT22;20032;52.436;13.312;2023-06-26T02:05:51;19.10;99.90
33699;DHT22;20032;52.436;13.312;2023-06-26T02:08:17;19.10;99.90
33699;DHT22;20032;52.436;13.312;2023-06-26T02:10:43;19.10;99.90
33699;DHT22;20032;52.436;13.312;2023-06-26T02:13:08;19.10;99.90
33699;DHT22;20032;52.436;13.312;2023-06-26T02:15:34;19.20;99.90
33699;DHT22;20032;52.436;13.312;2023-06-26T02:17:59;19.30;99.90
33699;DHT22;20032;52.436;13.312;2023-06-26T02:20:25;19.20;99.90
33699;DHT22;20032;52.436;13.312;2023-06-26T02:22:50;19.20;99.90
33699;DHT22;20032;52.436;13.312;2023-06-26T02:25:17;19.20;99.90
33699;DHT22;20032;52.436;13.312;2023-06-26T02:27:42;19.10;99.90
33699;DHT22;20032;52.436;13.312;2023-06-26T02:30:09;19.10;99.90
33699;DHT22;20032;52.436;13.312;2023-06-26T02:32:35;19.10;99.90
33699;DHT22;20032;52.436;13.312;2023-06-26T02:35:01;19.10;99.90
33699;DHT22;20032;52.436;13.312;2023-06-26T02:37:26;19.10;99.90
33699;DHT22;20032;52.436;13.312;2023-06-26T02:39:52;19.10;99.90
33699;DHT22;20032;52.436;13.312;2023-06-26T02:42:17;19.00;99.90
33699;DHT22;20032;52.436;13.312;2023-06-26T02:44:43;18.90;99.90
33699;DHT22;20032;52.436;13.312;2023-06-26T02:47:08;18.90;99.90
33699;DHT22;20032;52.436;13.312;2023-06-26T02:49:34;19.00;99.90
33699;DHT22;20032;52.436;13.312;2023-06-26T02:51:59;19.00;99.90
33699;DHT22;20032;52.436;13.312;2023-06-26T02:54:25;19.00;99.90
33699;DHT22;20032;52.436;13.312;2023-06-26T02:56:51;19.00;99.90
33699;DHT22;20032;52.436;13.312;2023-06-26T02:59:17;19.10;99.90
33699;DHT22;20032;52.436;13.312;2023-06-26T03:01:44;19.10;99.90
33699;DHT22;20032;52.436;13.312;2023-06-26T03:04:09;19.10;99.90
33699;DHT22;20032;52.436;13.312;2023-06-26T03:06:36;19.10;99.90
33699;DHT22;20032;52.436;13.312;2023-06-26T03:09:01;19.00;99.90
33699;DHT22;20032;52.436;13.312;2023-06-26T03:11:27;19.00;99.90
33699;DHT22;20032;52.436;13.312;2023-06-26T03:13:53;19.00;99.90
33699;DHT22;20032;52.436;13.312;2023-06-26T03:16:18;19.00;99.90
33699;DHT22;20032;52.436;13.312;2023-06-26T03:18:44;19.00;99.90
33699;DHT22;20032;52.436;13.312;2023-06-26T03:21:10;19.00;99.90
33699;DHT22;20032;52.436;13.312;2023-06-26T03:23:36;19.00;99.90
33699;DHT22;20032;52.436;13.312;2023-06-26T03:26:01;19.00;99.90
33699;DHT22;20032;52.436;13.312;2023-06-26T03:28:27;19.10;99.90
33699;DHT22;20032;52.436;13.312;2023-06-26T03:30:52;19.10;99.90
33699;DHT22;20032;52.436;13.312;2023-06-26T03:33:18;19.10;99.90
33699;DHT22;20032;52.436;13.312;2023-06-26T03:35:43;19.20;99.90
33699;DHT22;20032;52.436;13.312;2023-06-26T03:38:09;19.20;99.90
33699;DHT22;20032;52.436;13.312;2023-06-26T03:40:35;19.20;99.90
33699;DHT22;20032;52.436;13.312;2023-06-26T03:43:01;19.20;99.90
33699;DHT22;20032;52.436;13.312;2023-06-26T03:45:27;19.40;99.90
33699;DHT22;20032;52.436;13.312;2023-06-26T03:47:53;19.40;99.90
33699;DHT22;20032;52.436;13.312;2023-06-26T03:50:19;19.40;99.90
33699;DHT22;20032;52.436;13.312;2023-06-26T03:52:47;19.30;99.90
33699;DHT22;20032;52.436;13.312;2023-06-26T03:55:12;19.40;99.90
33699;DHT22;20032;52.436;13.312;2023-06-26T03:57:38;19.30;99.90
33699;DHT22;20032;52.436;13.312;2023-06-26T04:00:04;19.40;99.90
33699;DHT22;20032;52.436;13.312;2023-06-26T04:02:34;19.50;99.90
33699;DHT22;20032;52.436;13.312;2023-06-26T04:04:59;19.70;99.90
33699;DHT22;20032;52.436;13.312;2023-06-26T04:07:26;19.70;99.90
33699;DHT22;20032;52.436;13.312;2023-06-26T04:09:51;19.60;99.90
33699;DHT22;20032;52.436;13.312;2023-06-26T04:12:17;19.60;99.90
33699;DHT22;20032;52.436;13.312;2023-06-26T04:14:42;19.60;99.90
33699;DHT22;20032;52.436;13.312;2023-06-26T04:17:08;19.60;99.90
33699;DHT22;20032;52.436;13.312;2023-06-26T04:19:33;19.70;99.90
33699;DHT22;20032;52.436;13.312;2023-06-26T04:22:02;19.70;99.90
33699;DHT22;20032;52.436;13.312;2023-06-26T04:24:28;19.60;99.90
33699;DHT22;20032;52.436;13.312;2023-06-26T04:26:53;19.70;99.90
33699;DHT22;20032;52.436;13.312;2023-06-26T04:29:22;19.70;99.90
33699;DHT22;20032;52.436;13.312;2023-06-26T04:31:51;19.70;99.90
33699;DHT22;20032;52.436;13.312;2023-06-26T04:34:16;19.70;99.90
33699;DHT22;20032;52.436;13.312;2023-06-26T04:36:42;19.70;99.90
33699;DHT22;20032;52.436;13.312;2023-06-26T04:39:11;19.70;99.90
33699;DHT22;20032;52.436;13.312;2023-06-26T04:41:37;19.70;99.90
33699;DHT22;20032;52.436;13.312;2023-06-26T04:44:02;19.70;99.90
33699;DHT22;20032;52.436;13.312;2023-06-26T04:46:28;19.70;99.90
33699;DHT22;20032;52.436;13.312;2023-06-26T04:48:53;19.70;99.90
33699;DHT22;20032;52.436;13.312;2023-06-26T04:51:19;19.70;99.90
33699;DHT22;20032;52.436;13.312;2023-06-26T04:53:46;19.80;99.90
33699;DHT22;20032;52.436;13.312;2023-06-26T04:56:11;19.90;99.90
33699;DHT22;20032;52.436;13.312;2023-06-26T04:58:37;20.00;99.90
33699;DHT22;20032;52.436;13.312;2023-06-26T05:01:04;20.10;99.90
33699;DHT22;20032;52.436;13.312;2023-06-26T05:03:32;20.30;99.90
33699;DHT22;20032;52.436;13.312;2023-06-26T05:05:57;20.30;99.90
33699;DHT22;20032;52.436;13.312;2023-06-26T05:08:24;20.50;99.90
33699;DHT22;20032;52.436;13.312;2023-06-26T05:10:51;20.60;99.90
33699;DHT22;20032;52.436;13.312;2023-06-26T05:13:18;20.60;99.90
33699;DHT22;20032;52.436;13.312;2023-06-26T05:15:46;20.70;99.90
33699;DHT22;20032;52.436;13.312;2023-06-26T05:18:12;20.70;99.90
33699;DHT22;20032;52.436;13.312;2023-06-26T05:20:38;20.60;99.90
33699;DHT22;20032;52.436;13.312;2023-06-26T05:23:04;20.60;99.90
33699;DHT22;20032;52.436;13.312;2023-06-26T05:25:31;20.50;99.90
33699;DHT22;20032;52.436;13.312;2023-06-26T05:27:58;20.50;99.90
33699;DHT22;20032;52.436;13.312;2023-06-26T05:30:25;20.50;99.90
33699;DHT22;20032;52.436;13.312;2023-06-26T05:32:52;20.40;99.90
33699;DHT22;20032;52.436;13.312;2023-06-26T05:35:22;20.40;99.90
33699;DHT22;20032;52.436;13.312;2023-06-26T05:37:50;20.50;99.90
33699;DHT22;20032;52.436;13.312;2023-06-26T05:40:29;20.50;99.90
33699;DHT22;20032;52.436;13.312;2023-06-26T05:42:55;20.40;99.90
33699;DHT22;20032;52.436;13.312;2023-06-26T05:45:21;20.40;99.90
33699;DHT22;20032;52.436;13.312;2023-06-26T05:47:48;20.60;99.90
33699;DHT22;20032;52.436;13.312;2023-06-26T05:50:17;20.70;99.90
33699;DHT22;20032;52.436;13.312;2023-06-26T05:52:43;20.80;99.90
33699;DHT22;20032;52.436;13.312;2023-06-26T05:55:09;20.90;99.90
33699;DHT22;20032;52.436;13.312;2023-06-26T05:57:37;21.00;99.90
33699;DHT22;20032;52.436;13.312;2023-06-26T06:00:03;21.10;99.90
33699;DHT22;20032;52.436;13.312;2023-06-26T06:02:32;21.20;99.90
33699;DHT22;20032;52.436;13.312;2023-06-26T06:04:57;21.30;99.90
33699;DHT22;20032;52.436;13.312;2023-06-26T06:07:23;21.30;99.90
33699;DHT22;20032;52.436;13.312;2023-06-26T06:09:48;21.40;99.90
33699;DHT22;20032;52.436;13.312;2023-06-26T06:12:15;21.50;99.90
33699;DHT22;20032;52.436;13.312;2023-06-26T06:14:40;21.70;99.90
33699;DHT22;20032;52.436;13.312;2023-06-26T06:17:06;21.70;99.90
33699;DHT22;20032;52.436;13.312;2023-06-26T06:19:31;21.80;99.90
33699;DHT22;20032;52.436;13.312;2023-06-26T06:21:57;21.80;99.90
33699;DHT22;20032;52.436;13.312;2023-06-26T06:24:22;21.90;99.90
33699;DHT22;20032;52.436;13.312;2023-06-26T06:26:48;22.00;99.90
33699;DHT22;20032;52.436;13.312;2023-06-26T06:29:16;22.10;99.90
33699;DHT22;20032;52.436;13.312;2023-06-26T06:31:44;22.20;99.90
33699;DHT22;20032;52.436;13.312;2023-06-26T06:34:09;22.20;99.90
33699;DHT22;20032;52.436;13.312;2023-06-26T06:36:35;22.30;99.90
33699;DHT22;20032;52.436;13.312;2023-06-26T06:39:00;22.40;99.90
33699;DHT22;20032;52.436;13.312;2023-06-26T06:41:26;22.50;99.90
33699;DHT22;20032;52.436;13.312;2023-06-26T06:43:51;22.60;99.90
33699;DHT22;20032;52.436;13.312;2023-06-26T06:46:17;22.70;99.90
33699;DHT22;20032;52.436;13.312;2023-06-26T06:48:44;22.80;99.90
33699;DHT22;20032;52.436;13.312;2023-06-26T06:51:11;22.80;99.90
33699;DHT22;20032;52.436;13.312;2023-06-26T06:53:37;22.90;99.90
33699;DHT22;20032;52.436;13.312;2023-06-26T06:56:03;22.90;99.90
33699;DHT22;20032;52.436;13.312;2023-06-26T06:58:28;23.00;99.90
33699;DHT22;20032;52.436;13.312;2023-06-26T07:00:54;23.10;99.90
33699;DHT22;20032;52.436;13.312;2023-06-26T07:03:19;23.10;99.90
33699;DHT22;20032;52.436;13.312;2023-06-26T07:05:47;23.20;99.90
33699;DHT22;20032;52.436;13.312;2023-06-26T07:08:13;23.30;99.90
33699;DHT22;20032;52.436;13.312;2023-06-26T07:10:39;23.30;99.90
33699;DHT22;20032;52.436;13.312;2023-06-26T07:13:05;23.40;99.90
33699;DHT22;20032;52.436;13.312;2023-06-26T07:15:31;23.50;99.90
33699;DHT22;20032;52.436;13.312;2023-06-26T07:17:56;23.60;99.90
33699;DHT22;20032;52.436;13.312;2023-06-26T07:20:22;23.70;99.90
33699;DHT22;20032;52.436;13.312;2023-06-26T07:22:48;23.80;99.90
33699;DHT22;20032;52.436;13.312;2023-06-26T07:25:15;23.90;99.90
33699;DHT22;20032;52.436;13.312;2023-06-26T07:27:41;24.00;99.90
33699;DHT22;20032;52.436;13.312;2023-06-26T07:30:09;24.10;99.90
33699;DHT22;20032;52.436;13.312;2023-06-26T07:32:36;24.10;99.90
33699;DHT22;20032;52.436;13.312;2023-06-26T07:35:02;24.10;99.90
33699;DHT22;20032;52.436;13.312;2023-06-26T07:37:28;24.20;99.90
33699;DHT22;20032;52.436;13.312;2023-06-26T07:39:53;24.30;99.90
33699;DHT22;20032;52.436;13.312;2023-06-26T07:42:19;24.60;99.90
33699;DHT22;20032;52.436;13.312;2023-06-26T07:44:50;24.70;99.90
33699;DHT22;20032;52.436;13.312;2023-06-26T07:47:16;24.70;99.90
33699;DHT22;20032;52.436;13.312;2023-06-26T07:49:41;24.90;99.90
33699;DHT22;20032;52.436;13.312;2023-06-26T07:52:07;24.90;99.90
33699;DHT22;20032;52.436;13.312;2023-06-26T07:54:37;24.90;99.90
33699;DHT22;20032;52.436;13.312;2023-06-26T07:57:04;25.00;99.90
33699;DHT22;20032;52.436;13.312;2023-06-26T07:59:32;25.20;99.90
33699;DHT22;20032;52.436;13.312;2023-06-26T08:01:58;25.30;99.90
33699;DHT22;20032;52.436;13.312;2023-06-26T08:04:26;25.50;99.90
33699;DHT22;20032;52.436;13.312;2023-06-26T08:06:55;25.60;99.90
33699;DHT22;20032;52.436;13.312;2023-06-26T08:09:24;25.70;99.90
33699;DHT22;20032;52.436;13.312;2023-06-26T08:11:49;25.80;99.90
33699;DHT22;20032;52.436;13.312;2023-06-26T08:14:15;25.80;99.90
33699;DHT22;20032;52.436;13.312;2023-06-26T08:16:42;25.80;99.90
33699;DHT22;20032;52.436;13.312;2023-06-26T08:19:09;25.90;99.90
33699;DHT22;20032;52.436;13.312;2023-06-26T08:21:35;26.00;99.90
33699;DHT22;20032;52.436;13.312;2023-06-26T08:24:01;26.20;99.90
33699;DHT22;20032;52.436;13.312;2023-06-26T08:26:28;26.40;99.90
33699;DHT22;20032;52.436;13.312;2023-06-26T08:28:54;26.40;99.90
33699;DHT22;20032;52.436;13.312;2023-06-26T08:31:20;26.40;99.90
33699;DHT22;20032;52.436;13.312;2023-06-26T08:33:47;26.40;99.90
33699;DHT22;20032;52.436;13.312;2023-06-26T08:36:13;26.60;99.90
33699;DHT22;20032;52.436;13.312;2023-06-26T08:38:39;26.60;99.90
33699;DHT22;20032;52.436;13.312;2023-06-26T08:41:06;26.70;99.90
33699;DHT22;20032;52.436;13.312;2023-06-26T08:43:33;26.80;99.90
33699;DHT22;20032;52.436;13.312;2023-06-26T08:45:59;26.90;99.90
33699;DHT22;20032;52.436;13.312;2023-06-26T08:48:29;26.90;99.90
33699;DHT22;20032;52.436;13.312;2023-06-26T08:50:57;26.90;99.90
33699;DHT22;20032;52.436;13.312;2023-06-26T08:54:00;27.00;99.90
33699;DHT22;20032;52.436;13.312;2023-06-26T08:56:35;27.10;99.90
33699;DHT22;20032;52.436;13.312;2023-06-26T08:59:01;27.20;99.90
33699;DHT22;20032;52.436;13.312;2023-06-26T09:01:27;27.30;99.90
33699;DHT22;20032;52.436;13.312;2023-06-26T09:03:53;27.40;99.90
33699;DHT22;20032;52.436;13.312;2023-06-26T09:06:20;27.60;99.90
33699;DHT22;20032;52.436;13.312;2023-06-26T09:08:46;27.70;99.90
33699;DHT22;20032;52.436;13.312;2023-06-26T09:11:12;27.60;99.90
33699;DHT22;20032;52.436;13.312;2023-06-26T09:13:38;27.60;99.90
33699;DHT22;20032;52.436;13.312;2023-06-26T09:16:06;27.60;99.90
33699;DHT22;20032;52.436;13.312;2023-06-26T09:18:33;27.70;99.90
33699;DHT22;20032;52.436;13.312;2023-06-26T09:20:59;27.80;99.90
33699;DHT22;20032;52.436;13.312;2023-06-26T09:23:25;27.90;99.90
33699;DHT22;20032;52.436;13.312;2023-06-26T09:25:51;27.90;99.90
33699;DHT22;20032;52.436;13.312;2023-06-26T09:28:17;28.00;99.90
33699;DHT22;20032;52.436;13.312;2023-06-26T09:30:44;28.00;99.00
33699;DHT22;20032;52.436;13.312;2023-06-26T09:33:15;28.00;99.50
33699;DHT22;20032;52.436;13.312;2023-06-26T09:35:43;28.00;99.90
33699;DHT22;20032;52.436;13.312;2023-06-26T09:38:12;28.10;99.70
33699;DHT22;20032;52.436;13.312;2023-06-26T09:40:38;28.00;99.90
33699;DHT22;20032;52.436;13.312;2023-06-26T09:43:06;28.10;99.60
33699;DHT22;20032;52.436;13.312;2023-06-26T09:45:33;28.30;99.90
33699;DHT22;20032;52.436;13.312;2023-06-26T09:48:00;28.40;99.90
33699;DHT22;20032;52.436;13.312;2023-06-26T09:50:28;28.50;99.70
33699;DHT22;20032;52.436;13.312;2023-06-26T09:52:55;28.70;99.90
33699;DHT22;20032;52.436;13.312;2023-06-26T09:55:21;28.70;98.20
33699;DHT22;20032;52.436;13.312;2023-06-26T09:57:50;28.80;98.30
33699;DHT22;20032;52.436;13.312;2023-06-26T10:00:18;29.00;98.30
33699;DHT22;20032;52.436;13.312;2023-06-26T10:02:44;28.70;96.60
33699;DHT22;20032;52.436;13.312;2023-06-26T10:05:11;28.80;96.60
33699;DHT22;20032;52.436;13.312;2023-06-26T10:07:39;29.00;97.70
33699;DHT22;20032;52.436;13.312;2023-06-26T10:10:05;29.20;97.30
33699;DHT22;20032;52.436;13.312;2023-06-26T10:12:32;29.00;96.30
33699;DHT22;20032;52.436;13.312;2023-06-26T10:15:02;29.20;96.80
33699;DHT22;20032;52.436;13.312;2023-06-26T10:17:31;29.60;97.90
33699;DHT22;20032;52.436;13.312;2023-06-26T10:19:58;29.80;96.60
33699;DHT22;20032;52.436;13.312;2023-06-26T10:22:29;29.90;96.60
33699;DHT22;20032;52.436;13.312;2023-06-26T10:24:58;30.10;95.00
33699;DHT22;20032;52.436;13.312;2023-06-26T10:27:28;30.20;95.70
33699;DHT22;20032;52.436;13.312;2023-06-26T10:29:56;30.30;94.70
33699;DHT22;20032;52.436;13.312;2023-06-26T10:32:24;30.30;95.00
33699;DHT22;20032;52.436;13.312;2023-06-26T10:34:51;30.50;94.20
33699;DHT22;20032;52.436;13.312;2023-06-26T10:37:17;30.70;95.20
33699;DHT22;20032;52.436;13.312;2023-06-26T10:39:48;30.50;93.10
33699;DHT22;20032;52.436;13.312;2023-06-26T10:42:15;30.50;93.40
33699;DHT22;20032;52.436;13.312;2023-06-26T10:44:42;30.90;93.30
33699;DHT22;20032;52.436;13.312;2023-06-26T10:47:09;31.00;93.20
33699;DHT22;20032;52.436;13.312;2023-06-26T10:49:36;31.20;93.70
33699;DHT22;20032;52.436;13.312;2023-06-26T10:52:02;31.10;92.10
33699;DHT22;20032;52.436;13.312;2023-06-26T10:54:31;31.00;92.90
33699;DHT22;20032;52.436;13.312;2023-06-26T10:56:58;31.00;91.60
33699;DHT22;20032;52.436;13.312;2023-06-26T10:59:25;31.10;92.40
33699;DHT22;20032;52.436;13.312;2023-06-26T11:04:44;31.60;90.90
33699;DHT22;20032;52.436;13.312;2023-06-26T11:07:26;31.70;91.70
33699;DHT22;20032;52.436;13.312;2023-06-26T11:10:09;31.90;91.30
33699;DHT22;20032;52.436;13.312;2023-06-26T11:12:39;32.00;90.20
33699;DHT22;20032;52.436;13.312;2023-06-26T11:15:11;31.90;90.60
33699;DHT22;20032;52.436;13.312;2023-06-26T11:17:43;31.60;89.30
33699;DHT22;20032;52.436;13.312;2023-06-26T11:20:12;31.80;88.50
33699;DHT22;20032;52.436;13.312;2023-06-26T11:22:39;32.10;89.50
33699;DHT22;20032;52.436;13.312;2023-06-26T11:25:06;32.50;88.20
33699;DHT22;20032;52.436;13.312;2023-06-26T11:27:43;32.60;86.10
33699;DHT22;20032;52.436;13.312;2023-06-26T11:30:10;32.70;85.40
33699;DHT22;20032;52.436;13.312;2023-06-26T11:32:38;32.90;85.90
33699;DHT22;20032;52.436;13.312;2023-06-26T11:35:04;33.20;83.50
33699;DHT22;20032;52.436;13.312;2023-06-26T11:37:31;33.20;85.30
33699;DHT22;20032;52.436;13.312;2023-06-26T11:39:57;33.70;82.20
33699;DHT22;20032;52.436;13.312;2023-06-26T11:42:23;33.70;81.30
33699;DHT22;20032;52.436;13.312;2023-06-26T11:44:50;33.50;83.90
33699;DHT22;20032;52.436;13.312;2023-06-26T11:47:18;33.90;82.20
33699;DHT22;20032;52.436;13.312;2023-06-26T11:49:46;34.20;80.00
33699;DHT22;20032;52.436;13.312;2023-06-26T11:52:12;34.20;79.40
33699;DHT22;20032;52.436;13.312;2023-06-26T11:54:38;34.40;78.10
33699;DHT22;20032;52.436;13.312;2023-06-26T11:57:04;34.50;77.00
33699;DHT22;20032;52.436;13.312;2023-06-26T11:59:34;34.50;78.70
33699;DHT22;20032;52.436;13.312;2023-06-26T12:02:05;34.70;80.90
33699;DHT22;20032;52.436;13.312;2023-06-26T12:04:32;35.00;77.00
33699;DHT22;20032;52.436;13.312;2023-06-26T12:06:59;34.90;76.90
33699;DHT22;20032;52.436;13.312;2023-06-26T12:09:25;35.20;77.50
33699;DHT22;20032;52.436;13.312;2023-06-26T12:11:53;35.90;74.00
33699;DHT22;20032;52.436;13.312;2023-06-26T12:14:22;36.20;74.50
33699;DHT22;20032;52.436;13.312;2023-06-26T12:16:48;36.20;74.20
33699;DHT22;20032;52.436;13.312;2023-06-26T12:19:14;36.20;73.80
33699;DHT22;20032;52.436;13.312;2023-06-26T12:24:14;35.60;74.00
33699;DHT22;20032;52.436;13.312;2023-06-26T12:26:42;35.70;75.70
33699;DHT22;20032;52.436;13.312;2023-06-26T12:29:11;35.90;75.50
33699;DHT22;20032;52.436;13.312;2023-06-26T12:31:41;36.20;73.60
33699;DHT22;20032;52.436;13.312;2023-06-26T12:34:11;36.60;72.90
33699;DHT22;20032;52.436;13.312;2023-06-26T12:36:41;36.90;70.30
33699;DHT22;20032;52.436;13.312;2023-06-26T12:39:09;37.10;72.40
33699;DHT22;20032;52.436;13.312;2023-06-26T12:41:44;37.00;71.50
33699;DHT22;20032;52.436;13.312;2023-06-26T12:44:27;37.20;72.50
33699;DHT22;20032;52.436;13.312;2023-06-26T12:46:57;37.30;68.20
33699;DHT22;20032;52.436;13.312;2023-06-26T12:49:39;37.50;68.70
33699;DHT22;20032;52.436;13.312;2023-06-26T12:52:06;37.50;69.00
33699;DHT22;20032;52.436;13.312;2023-06-26T12:54:34;37.60;71.20
33699;DHT22;20032;52.436;13.312;2023-06-26T12:57:00;37.40;70.60
33699;DHT22;20032;52.436;13.312;2023-06-26T12:59:25;37.40;67.50
33699;DHT22;20032;52.436;13.312;2023-06-26T13:01:51;37.10;69.00
33699;DHT22;20032;52.436;13.312;2023-06-26T13:04:17;36.40;68.70
33699;DHT22;20032;52.436;13.312;2023-06-26T13:06:42;35.60;70.20
33699;DHT22;20032;52.436;13.312;2023-06-26T13:09:08;35.40;71.60
33699;DHT22;20032;52.436;13.312;2023-06-26T13:11:34;34.90;71.60
33699;DHT22;20032;52.436;13.312;2023-06-26T13:14:00;34.50;72.80
33699;DHT22;20032;52.436;13.312;2023-06-26T13:16:26;34.10;75.70
33699;DHT22;20032;52.436;13.312;2023-06-26T13:18:51;33.90;74.30
33699;DHT22;20032;52.436;13.312;2023-06-26T13:21:17;33.30;74.60
33699;DHT22;20032;52.436;13.312;2023-06-26T13:23:44;32.80;76.20
33699;DHT22;20032;52.436;13.312;2023-06-26T13:26:10;32.80;77.60
33699;DHT22;20032;52.436;13.312;2023-06-26T13:28:37;32.80;76.90
33699;DHT22;20032;52.436;13.312;2023-06-26T13:31:03;32.50;76.40
33699;DHT22;20032;52.436;13.312;2023-06-26T13:33:29;32.70;78.10
33699;DHT22;20032;52.436;13.312;2023-06-26T13:35:54;33.20;76.90
33699;DHT22;20032;52.436;13.312;2023-06-26T13:38:21;33.50;77.90
33699;DHT22;20032;52.436;13.312;2023-06-26T13:40:52;33.80;75.20
33699;DHT22;20032;52.436;13.312;2023-06-26T13:43:18;34.10;75.20
33699;DHT22;20032;52.436;13.312;2023-06-26T13:45:44;35.10;75.30
33699;DHT22;20032;52.436;13.312;2023-06-26T13:48:09;35.80;70.50
33699;DHT22;20032;52.436;13.312;2023-06-26T13:50:35;35.20;70.90
33699;DHT22;20032;52.436;13.312;2023-06-26T13:53:00;34.90;70.50
33699;DHT22;20032;52.436;13.312;2023-06-26T13:55:27;34.20;72.10
33699;DHT22;20032;52.436;13.312;2023-06-26T13:57:52;33.60;74.30
33699;DHT22;20032;52.436;13.312;2023-06-26T14:00:18;33.50;74.40
33699;DHT22;20032;52.436;13.312;2023-06-26T14:02:46;33.50;74.10
33699;DHT22;20032;52.436;13.312;2023-06-26T14:05:12;32.90;73.20
33699;DHT22;20032;52.436;13.312;2023-06-26T14:07:37;32.30;73.90
33699;DHT22;20032;52.436;13.312;2023-06-26T14:10:05;32.10;75.10
33699;DHT22;20032;52.436;13.312;2023-06-26T14:12:31;31.70;76.70
33699;DHT22;20032;52.436;13.312;2023-06-26T14:14:57;31.60;78.30
33699;DHT22;20032;52.436;13.312;2023-06-26T14:17:23;31.40;79.90
33699;DHT22;20032;52.436;13.312;2023-06-26T14:19:51;31.20;78.90
33699;DHT22;20032;52.436;13.312;2023-06-26T14:22:18;30.80;83.40
33699;DHT22;20032;52.436;13.312;2023-06-26T14:24:43;29.10;93.40
33699;DHT22;20032;52.436;13.312;2023-06-26T14:27:09;26.80;99.90
33699;DHT22;20032;52.436;13.312;2023-06-26T14:29:36;25.10;99.90
33699;DHT22;20032;52.436;13.312;2023-06-26T14:32:02;24.30;99.90
33699;DHT22;20032;52.436;13.312;2023-06-26T14:34:28;23.80;99.90
33699;DHT22;20032;52.436;13.312;2023-06-26T14:36:54;23.40;99.90
33699;DHT22;20032;52.436;13.312;2023-06-26T14:39:19;23.20;99.90
33699;DHT22;20032;52.436;13.312;2023-06-26T14:41:45;23.10;99.90
33699;DHT22;20032;52.436;13.312;2023-06-26T14:44:13;23.30;99.90
33699;DHT22;20032;52.436;13.312;2023-06-26T14:46:38;23.40;99.90
33699;DHT22;20032;52.436;13.312;2023-06-26T14:49:04;23.30;99.90
33699;DHT22;20032;52.436;13.312;2023-06-26T14:51:29;23.40;99.90
33699;DHT22;20032;52.436;13.312;2023-06-26T14:53:54;23.30;99.90
33699;DHT22;20032;52.436;13.312;2023-06-26T14:56:20;23.10;99.90
33699;DHT22;20032;52.436;13.312;2023-06-26T14:58:46;23.10;99.90
33699;DHT22;20032;52.436;13.312;2023-06-26T15:01:13;23.00;99.90
33699;DHT22;20032;52.436;13.312;2023-06-26T15:03:41;22.80;99.90
33699;DHT22;20032;52.436;13.312;2023-06-26T15:06:06;22.60;99.90
33699;DHT22;20032;52.436;13.312;2023-06-26T15:08:32;22.50;99.90
33699;DHT22;20032;52.436;13.312;2023-06-26T15:10:57;22.50;99.90
33699;DHT22;20032;52.436;13.312;2023-06-26T15:13:23;22.40;99.90
33699;DHT22;20032;52.436;13.312;2023-06-26T15:15:48;22.20;99.90
33699;DHT22;20032;52.436;13.312;2023-06-26T15:18:14;22.10;99.90
33699;DHT22;20032;52.436;13.312;2023-06-26T15:20:40;22.10;99.90